sensor_id;sensor_type;location;lat;lon;timestamp;pressure;altitude;pressure_sealevel;temperature;humidity
17383;BME280;8809;51.892;8.384;2022-09-17T00:00:46;99929.53;;;11.63;100.00
17383;BME280;8809;51.892;8.384;2022-09-17T00:03:14;99931.28;;;11.64;100.00
17383;BME280;8809;51.892;8.384;2022-09-17T00:05:41;99935.66;;;11.65;100.00
17383;BME280;8809;51.892;8.384;2022-09-17T00:08:11;99939.16;;;11.65;100.00
17383;BME280;8809;51.892;8.384;2022-09-17T00:10:41;99933.97;;;11.67;100.00
17383;BME280;8809;51.892;8.384;2022-09-17T00:13:08;99942.66;;;11.66;100.00
17383;BME280;8809;51.892;8.384;2022-09-17T00:15:39;99933.97;;;11.67;100.00
17383;BME280;8809;51.892;8.384;2022-09-17T00:18:07;99940.88;;;11.65;100.00
17383;BME280;8809;51.892;8.384;2022-09-17T00:20:37;99935.66;;;11.65;100.00
17383;BME280;8809;51.892;8.384;2022-09-17T00:23:05;99942.66;;;11.66;100.00
17383;BME280;8809;51.892;8.384;2022-09-17T00:25:33;99952.28;;;11.67;100.00
17383;BME280;8809;51.892;8.384;2022-09-17T00:28:01;99947.03;;;11.67;100.00
17383;BME280;8809;51.892;8.384;2022-09-17T00:30:28;99953.06;;;11.64;100.00
17383;BME280;8809;51.892;8.384;2022-09-17T00:32:54;99951.34;;;11.65;100.00
17383;BME280;8809;51.892;8.384;2022-09-17T00:35:24;99949.56;;;11.64;100.00
17383;BME280;8809;51.892;8.384;2022-09-17T00:37:51;99948.69;;;11.63;100.00
17383;BME280;8809;51.892;8.384;2022-09-17T00:40:19;99949.56;;;11.64;100.00
17383;BME280;8809;51.892;8.384;2022-09-17T00:42:47;99952.19;;;11.64;100.00
17383;BME280;8809;51.892;8.384;2022-09-17T00:45:14;99952.19;;;11.64;100.00
17383;BME280;8809;51.892;8.384;2022-09-17T00:47:43;99951.34;;;11.65;100.00
17383;BME280;8809;51.892;8.384;2022-09-17T00:50:14;99948.72;;;11.65;100.00
17383;BME280;8809;51.892;8.384;2022-09-17T00:52:46;99951.28;;;11.62;100.00
17383;BME280;8809;51.892;8.384;2022-09-17T00:55:18;99955.66;;;11.63;100.00
17383;BME280;8809;51.892;8.384;2022-09-17T00:57:48;99948.72;;;11.65;100.00
17383;BME280;8809;51.892;8.384;2022-09-17T01:00:16;99955.66;;;11.63;100.00
17383;BME280;8809;51.892;8.384;2022-09-17T01:02:44;99957.41;;;11.64;100.00
17383;BME280;8809;51.892;8.384;2022-09-17T01:05:12;99953.06;;;11.63;100.00
17383;BME280;8809;51.892;8.384;2022-09-17T01:08:00;99966.13;;;11.63;100.00
17383;BME280;8809;51.892;8.384;2022-09-17T01:10:40;99960.00;;;11.64;100.00
17383;BME280;8809;51.892;8.384;2022-09-17T01:13:18;99962.63;;;11.64;100.00
17383;BME280;8809;51.892;8.384;2022-09-17T01:15:56;99961.75;;;11.63;100.00
17383;BME280;8809;51.892;8.384;2022-09-17T01:18:34;99966.06;;;11.61;100.00
17383;BME280;8809;51.892;8.384;2022-09-17T01:21:32;99966.06;;;11.61;100.00
17383;BME280;8809;51.892;8.384;2022-09-17T01:24:49;99964.28;;;11.60;100.00
17383;BME280;8809;51.892;8.384;2022-09-17T01:27:34;99971.25;;;11.60;100.00
17383;BME280;8809;51.892;8.384;2022-09-17T01:30:53;99968.63;;;11.60;100.00
17383;BME280;8809;51.892;8.384;2022-09-17T01:33:29;99968.63;;;11.60;100.00
17383;BME280;8809;51.892;8.384;2022-09-17T01:36:09;99976.47;;;11.60;100.00
17383;BME280;8809;51.892;8.384;2022-09-17T01:38:43;99970.31;;;11.58;100.00
17383;BME280;8809;51.892;8.384;2022-09-17T01:41:20;99975.53;;;11.58;100.00
17383;BME280;8809;51.892;8.384;2022-09-17T01:43:53;99968.53;;;11.57;100.00
17383;BME280;8809;51.892;8.384;2022-09-17T01:46:27;99974.59;;;11.56;100.00
17383;BME280;8809;51.892;8.384;2022-09-17T01:48:58;99972.81;;;11.53;100.00
17383;BME280;8809;51.892;8.384;2022-09-17T01:51:29;99985.00;;;11.52;100.00
17383;BME280;8809;51.892;8.384;2022-09-17T01:54:01;99980.66;;;11.53;100.00
17383;BME280;8809;51.892;8.384;2022-09-17T01:56:32;99984.13;;;11.53;100.00
17383;BME280;8809;51.892;8.384;2022-09-17T01:59:06;99990.13;;;11.49;100.00
17383;BME280;8809;51.892;8.384;2022-09-17T02:01:38;99975.44;;;11.53;100.00
17383;BME280;8809;51.892;8.384;2022-09-17T02:04:10;99992.69;;;11.48;100.00
17383;BME280;8809;51.892;8.384;2022-09-17T02:06:44;99979.56;;;11.46;100.00
17383;BME280;8809;51.892;8.384;2022-09-17T02:09:16;99983.81;;;11.41;100.00
17383;BME280;8809;51.892;8.384;2022-09-17T02:11:47;99978.53;;;11.40;100.00
17383;BME280;8809;51.892;8.384;2022-09-17T02:14:19;99987.16;;;11.37;100.00
17383;BME280;8809;51.892;8.384;2022-09-17T02:16:53;99982.78;;;11.36;100.00
17383;BME280;8809;51.892;8.384;2022-09-17T02:19:25;99984.44;;;11.34;100.00
17383;BME280;8809;51.892;8.384;2022-09-17T02:22:00;99987.00;;;11.31;100.00
17383;BME280;8809;51.892;8.384;2022-09-17T02:24:34;99987.81;;;11.30;100.00
17383;BME280;8809;51.892;8.384;2022-09-17T02:27:18;99988.63;;;11.28;100.00
17383;BME280;8809;51.892;8.384;2022-09-17T02:29:49;99982.50;;;11.27;100.00
17383;BME280;8809;51.892;8.384;2022-09-17T02:32:17;99979.78;;;11.23;100.00
17383;BME280;8809;51.892;8.384;2022-09-17T02:34:45;99984.91;;;11.20;100.00
17383;BME280;8809;51.892;8.384;2022-09-17T02:37:12;99990.06;;;11.18;100.00
17383;BME280;8809;51.892;8.384;2022-09-17T02:39:40;99992.59;;;11.15;100.00
17383;BME280;8809;51.892;8.384;2022-09-17T02:42:14;99993.47;;;11.14;100.00
17383;BME280;8809;51.892;8.384;2022-09-17T02:44:50;99991.63;;;11.11;100.00
17383;BME280;8809;51.892;8.384;2022-09-17T02:47:50;99994.09;;;11.07;100.00
17383;BME280;8809;51.892;8.384;2022-09-17T02:50:36;99995.78;;;11.05;100.00
17383;BME280;8809;51.892;8.384;2022-09-17T02:53:21;100010.53;;;11.03;100.00
17383;BME280;8809;51.892;8.384;2022-09-17T02:55:59;100006.97;;;11.01;100.00
17383;BME280;8809;51.892;8.384;2022-09-17T02:58:31;100009.59;;;11.01;100.00
17383;BME280;8809;51.892;8.384;2022-09-17T03:01:03;100008.59;;;10.97;100.00
17383;BME280;8809;51.892;8.384;2022-09-17T03:03:38;100007.63;;;10.94;100.00
17383;BME280;8809;51.892;8.384;2022-09-17T03:06:06;100005.84;;;10.93;100.00
17383;BME280;8809;51.892;8.384;2022-09-17T03:08:36;100004.91;;;10.91;100.00
17383;BME280;8809;51.892;8.384;2022-09-17T03:11:04;99999.66;;;10.89;100.00
17383;BME280;8809;51.892;8.384;2022-09-17T03:13:34;99998.72;;;10.87;100.00
17383;BME280;8809;51.892;8.384;2022-09-17T03:16:02;99993.47;;;10.86;100.00
17383;BME280;8809;51.892;8.384;2022-09-17T03:18:29;99997.75;;;10.84;100.00
17383;BME280;8809;51.892;8.384;2022-09-17T03:20:57;99994.19;;;10.82;100.00
17383;BME280;8809;51.892;8.384;2022-09-17T03:23:24;99994.94;;;10.77;100.00
17383;BME280;8809;51.892;8.384;2022-09-17T03:25:52;99999.25;;;10.75;100.00
17383;BME280;8809;51.892;8.384;2022-09-17T03:28:19;99991.41;;;10.75;100.00
17383;BME280;8809;51.892;8.384;2022-09-17T03:30:46;99994.81;;;10.73;100.00
17383;BME280;8809;51.892;8.384;2022-09-17T03:33:13;99997.38;;;10.71;100.00
17383;BME280;8809;51.892;8.384;2022-09-17T03:35:41;100002.59;;;10.71;100.00
17383;BME280;8809;51.892;8.384;2022-09-17T03:38:10;100003.31;;;10.67;100.00
17383;BME280;8809;51.892;8.384;2022-09-17T03:40:37;100013.72;;;10.66;100.00
17383;BME280;8809;51.892;8.384;2022-09-17T03:43:05;100006.72;;;10.65;100.00
17383;BME280;8809;51.892;8.384;2022-09-17T03:45:32;100004.91;;;10.62;100.00
17383;BME280;8809;51.892;8.384;2022-09-17T03:47:59;100012.63;;;10.59;100.00
17383;BME280;8809;51.892;8.384;2022-09-17T03:50:27;100019.47;;;10.56;100.00
17383;BME280;8809;51.892;8.384;2022-09-17T03:52:54;100017.72;;;10.55;100.00
17383;BME280;8809;51.892;8.384;2022-09-17T03:55:22;100020.25;;;10.53;100.00
17383;BME280;8809;51.892;8.384;2022-09-17T03:57:49;100023.53;;;10.48;100.00
17383;BME280;8809;51.892;8.384;2022-09-17T04:00:16;100033.97;;;10.48;100.00
17383;BME280;8809;51.892;8.384;2022-09-17T04:02:43;100033.84;;;10.43;100.00
17383;BME280;8809;51.892;8.384;2022-09-17T04:05:10;100040.72;;;10.41;100.00
17383;BME280;8809;51.892;8.384;2022-09-17T04:07:38;100038.84;;;10.37;100.00
17383;BME280;8809;51.892;8.384;2022-09-17T04:10:06;100036.97;;;10.33;100.00
17383;BME280;8809;51.892;8.384;2022-09-17T04:12:49;100038.69;;;10.32;100.00
17383;BME280;8809;51.892;8.384;2022-09-17T04:15:16;100038.63;;;10.31;100.00
17383;BME280;8809;51.892;8.384;2022-09-17T04:17:43;100038.56;;;10.28;100.00
17383;BME280;8809;51.892;8.384;2022-09-17T04:20:10;100033.34;;;10.28;100.00
17383;BME280;8809;51.892;8.384;2022-09-17T04:22:39;100042.00;;;10.27;100.00
17383;BME280;8809;51.892;8.384;2022-09-17T04:25:07;100041.03;;;10.25;100.00
17383;BME280;8809;51.892;8.384;2022-09-17T04:27:36;100042.59;;;10.20;100.00
17383;BME280;8809;51.892;8.384;2022-09-17T04:30:05;100043.47;;;10.19;100.00
17383;BME280;8809;51.892;8.384;2022-09-17T04:32:34;100039.06;;;10.18;100.00
17383;BME280;8809;51.892;8.384;2022-09-17T04:35:02;100045.91;;;10.16;100.00
17383;BME280;8809;51.892;8.384;2022-09-17T04:37:29;100040.59;;;10.13;100.00
17383;BME280;8809;51.892;8.384;2022-09-17T04:39:56;100050.97;;;10.11;100.00
17383;BME280;8809;51.892;8.384;2022-09-17T04:42:23;100045.75;;;10.11;100.00
17383;BME280;8809;51.892;8.384;2022-09-17T04:44:50;100051.84;;;10.12;100.00
17383;BME280;8809;51.892;8.384;2022-09-17T04:47:18;100050.06;;;10.11;100.00
17383;BME280;8809;51.892;8.384;2022-09-17T04:49:45;100052.69;;;10.11;100.00
17383;BME280;8809;51.892;8.384;2022-09-17T04:52:12;100049.19;;;10.10;100.00
17383;BME280;8809;51.892;8.384;2022-09-17T04:54:39;100048.28;;;10.10;100.00
17383;BME280;8809;51.892;8.384;2022-09-17T04:57:06;100049.09;;;10.07;100.00
17383;BME280;8809;51.892;8.384;2022-09-17T04:59:33;100054.31;;;10.07;100.00
17383;BME280;8809;51.892;8.384;2022-09-17T05:02:00;100051.69;;;10.07;100.00
17383;BME280;8809;51.892;8.384;2022-09-17T05:04:28;100049.88;;;10.04;100.00
17383;BME280;8809;51.892;8.384;2022-09-17T05:06:55;100046.31;;;10.02;100.00
17383;BME280;8809;51.892;8.384;2022-09-17T05:09:22;100050.56;;;9.99;100.00
17383;BME280;8809;51.892;8.384;2022-09-17T05:11:49;100058.41;;;10.00;100.00
17383;BME280;8809;51.892;8.384;2022-09-17T05:14:16;100067.94;;;10.00;100.00
17383;BME280;8809;51.892;8.384;2022-09-17T05:16:43;100057.44;;;9.97;100.00
17383;BME280;8809;51.892;8.384;2022-09-17T05:19:09;100066.91;;;9.95;100.00
17383;BME280;8809;51.892;8.384;2022-09-17T05:21:38;100067.66;;;9.92;100.00
17383;BME280;8809;51.892;8.384;2022-09-17T05:24:05;100071.09;;;9.91;100.00
17383;BME280;8809;51.892;8.384;2022-09-17T05:26:32;100067.59;;;9.89;100.00
17383;BME280;8809;51.892;8.384;2022-09-17T05:29:00;100079.72;;;9.89;100.00
17383;BME280;8809;51.892;8.384;2022-09-17T05:31:27;100074.44;;;9.87;100.00
17383;BME280;8809;51.892;8.384;2022-09-17T05:33:54;100073.44;;;9.84;100.00
17383;BME280;8809;51.892;8.384;2022-09-17T05:36:21;100076.06;;;9.84;100.00
17383;BME280;8809;51.892;8.384;2022-09-17T05:38:49;100076.06;;;9.84;100.00
17383;BME280;8809;51.892;8.384;2022-09-17T05:41:16;100077.72;;;9.82;100.00
17383;BME280;8809;51.892;8.384;2022-09-17T05:43:43;100077.72;;;9.82;100.00
17383;BME280;8809;51.892;8.384;2022-09-17T05:46:10;100084.69;;;9.83;100.00
17383;BME280;8809;51.892;8.384;2022-09-17T05:48:38;100085.53;;;9.82;100.00
17383;BME280;8809;51.892;8.384;2022-09-17T05:51:05;100086.41;;;9.82;100.00
17383;BME280;8809;51.892;8.384;2022-09-17T05:53:32;100086.47;;;9.84;100.00
17383;BME280;8809;51.892;8.384;2022-09-17T05:56:01;100084.81;;;9.86;100.00
17383;BME280;8809;51.892;8.384;2022-09-17T05:58:27;100082.91;;;9.82;100.00
17383;BME280;8809;51.892;8.384;2022-09-17T06:00:59;100089.00;;;9.82;100.00
17383;BME280;8809;51.892;8.384;2022-09-17T06:03:26;100093.41;;;9.83;100.00
17383;BME280;8809;51.892;8.384;2022-09-17T06:05:55;100092.44;;;9.81;100.00
17383;BME280;8809;51.892;8.384;2022-09-17T06:08:23;100089.06;;;9.84;100.00
17383;BME280;8809;51.892;8.384;2022-09-17T06:10:51;100102.16;;;9.85;100.00
17383;BME280;8809;51.892;8.384;2022-09-17T06:13:20;100110.09;;;9.88;100.00
17383;BME280;8809;51.892;8.384;2022-09-17T06:15:50;100111.00;;;9.90;100.00
17383;BME280;8809;51.892;8.384;2022-09-17T06:18:17;100116.34;;;9.93;100.00
17383;BME280;8809;51.892;8.384;2022-09-17T06:20:51;100116.41;;;9.95;100.00
17383;BME280;8809;51.892;8.384;2022-09-17T06:23:19;100119.06;;;9.96;100.00
17383;BME280;8809;51.892;8.384;2022-09-17T06:25:50;100120.94;;;10.00;100.00
17383;BME280;8809;51.892;8.384;2022-09-17T06:28:19;100120.16;;;10.03;100.00
17383;BME280;8809;51.892;8.384;2022-09-17T06:30:46;100127.22;;;10.05;100.00
17383;BME280;8809;51.892;8.384;2022-09-17T06:33:14;100128.16;;;10.08;100.00
17383;BME280;8809;51.892;8.384;2022-09-17T06:35:41;100129.22;;;10.13;100.00
17383;BME280;8809;51.892;8.384;2022-09-17T06:38:08;100124.94;;;10.15;100.00
17383;BME280;8809;51.892;8.384;2022-09-17T06:40:35;100132.09;;;10.19;100.00
17383;BME280;8809;51.892;8.384;2022-09-17T06:43:02;100126.97;;;10.22;100.00
17383;BME280;8809;51.892;8.384;2022-09-17T06:45:30;100134.13;;;10.27;100.00
17383;BME280;8809;51.892;8.384;2022-09-17T06:48:02;100124.66;;;10.31;100.00
17383;BME280;8809;51.892;8.384;2022-09-17T06:50:29;100127.41;;;10.34;100.00
17383;BME280;8809;51.892;8.384;2022-09-17T06:52:56;100124.00;;;10.36;100.00
17383;BME280;8809;51.892;8.384;2022-09-17T06:55:23;100126.72;;;10.39;100.00
17383;BME280;8809;51.892;8.384;2022-09-17T06:57:51;100126.88;;;10.44;100.00
17383;BME280;8809;51.892;8.384;2022-09-17T07:00:18;100122.59;;;10.46;100.00
17383;BME280;8809;51.892;8.384;2022-09-17T07:02:55;100126.13;;;10.48;100.00
17383;BME280;8809;51.892;8.384;2022-09-17T07:05:22;100126.13;;;10.48;100.00
17383;BME280;8809;51.892;8.384;2022-09-17T07:07:49;100133.13;;;10.49;100.00
17383;BME280;8809;51.892;8.384;2022-09-17T07:10:16;100141.78;;;10.48;100.00
17383;BME280;8809;51.892;8.384;2022-09-17T07:12:43;100131.34;;;10.48;100.00
17383;BME280;8809;51.892;8.384;2022-09-17T07:15:11;100134.91;;;10.50;100.00
17383;BME280;8809;51.892;8.384;2022-09-17T07:17:38;100134.06;;;10.51;100.00
17383;BME280;8809;51.892;8.384;2022-09-17T07:20:11;100128.91;;;10.53;100.00
17383;BME280;8809;51.892;8.384;2022-09-17T07:22:40;100136.88;;;10.57;100.00
17383;BME280;8809;51.892;8.384;2022-09-17T07:25:08;100137.81;;;10.59;100.00
17383;BME280;8809;51.892;8.384;2022-09-17T07:27:35;100129.22;;;10.62;100.00
17383;BME280;8809;51.892;8.384;2022-09-17T07:30:02;100130.16;;;10.64;100.00
17383;BME280;8809;51.892;8.384;2022-09-17T07:32:30;100133.75;;;10.67;100.00
17383;BME280;8809;51.892;8.384;2022-09-17T07:34:56;100125.97;;;10.69;100.00
17383;BME280;8809;51.892;8.384;2022-09-17T07:37:25;100125.19;;;10.71;100.00
17383;BME280;8809;51.892;8.384;2022-09-17T07:39:52;100124.47;;;10.75;100.00
17383;BME280;8809;51.892;8.384;2022-09-17T07:42:19;100122.84;;;10.79;100.00
17383;BME280;8809;51.892;8.384;2022-09-17T07:44:45;100124.78;;;10.85;100.00
17383;BME280;8809;51.892;8.384;2022-09-17T07:47:12;100127.56;;;10.91;100.00
17383;BME280;8809;51.892;8.384;2022-09-17T07:49:39;100137.38;;;10.98;100.00
17383;BME280;8809;51.892;8.384;2022-09-17T07:52:06;100125.31;;;11.01;100.00
17383;BME280;8809;51.892;8.384;2022-09-17T07:54:35;100129.81;;;11.07;100.00
17383;BME280;8809;51.892;8.384;2022-09-17T07:57:02;100117.72;;;11.09;100.00
17383;BME280;8809;51.892;8.384;2022-09-17T07:59:29;100133.50;;;11.12;100.00
17383;BME280;8809;51.892;8.384;2022-09-17T08:01:56;100125.84;;;11.18;100.00
17383;BME280;8809;51.892;8.384;2022-09-17T08:04:23;100128.56;;;11.21;100.00
17383;BME280;8809;51.892;8.384;2022-09-17T08:06:50;100126.88;;;11.23;100.00
17383;BME280;8809;51.892;8.384;2022-09-17T08:09:17;100127.00;;;11.28;100.00
17383;BME280;8809;51.892;8.384;2022-09-17T08:11:45;100132.28;;;11.29;100.00
17383;BME280;8809;51.892;8.384;2022-09-17T08:14:15;100129.84;;;11.34;100.00
17383;BME280;8809;51.892;8.384;2022-09-17T08:16:42;100131.78;;;11.41;100.00
17383;BME280;8809;51.892;8.384;2022-09-17T08:19:11;100129.25;;;11.44;100.00
17383;BME280;8809;51.892;8.384;2022-09-17T08:21:38;100125.94;;;11.49;100.00
17383;BME280;8809;51.892;8.384;2022-09-17T08:24:05;100123.50;;;11.56;100.00
17383;BME280;8809;51.892;8.384;2022-09-17T08:26:32;100121.94;;;11.61;100.00
17383;BME280;8809;51.892;8.384;2022-09-17T08:29:01;100121.16;;;11.65;100.00
17383;BME280;8809;51.892;8.384;2022-09-17T08:31:28;100113.56;;;11.72;100.00
17383;BME280;8809;51.892;8.384;2022-09-17T08:33:57;100116.44;;;11.80;100.00
17383;BME280;8809;51.892;8.384;2022-09-17T08:36:25;100127.06;;;11.86;100.00
17383;BME280;8809;51.892;8.384;2022-09-17T08:38:53;100114.19;;;11.94;100.00
17383;BME280;8809;51.892;8.384;2022-09-17T08:41:24;100122.28;;;12.01;100.00
17383;BME280;8809;51.892;8.384;2022-09-17T08:44:01;100118.09;;;12.08;100.00
17383;BME280;8809;51.892;8.384;2022-09-17T08:46:39;100124.47;;;12.17;100.00
17383;BME280;8809;51.892;8.384;2022-09-17T08:49:12;100121.22;;;12.26;100.00
17383;BME280;8809;51.892;8.384;2022-09-17T08:51:55;100122.19;;;12.30;100.00
17383;BME280;8809;51.892;8.384;2022-09-17T08:54:34;100118.16;;;12.42;100.00
17383;BME280;8809;51.892;8.384;2022-09-17T08:57:21;100123.78;;;12.57;100.00
17383;BME280;8809;51.892;8.384;2022-09-17T08:59:57;100119.81;;;12.73;100.00
17383;BME280;8809;51.892;8.384;2022-09-17T09:02:42;100126.13;;;12.81;100.00
17383;BME280;8809;51.892;8.384;2022-09-17T09:05:17;100131.44;;;12.84;100.00
17383;BME280;8809;51.892;8.384;2022-09-17T09:07:48;100129.81;;;12.88;100.00
17383;BME280;8809;51.892;8.384;2022-09-17T09:10:20;100129.06;;;12.93;100.00
17383;BME280;8809;51.892;8.384;2022-09-17T09:12:50;100123.97;;;12.99;100.00
17383;BME280;8809;51.892;8.384;2022-09-17T09:15:26;100124.31;;;13.13;100.00
17383;BME280;8809;51.892;8.384;2022-09-17T09:17:58;100128.91;;;13.22;100.00
17383;BME280;8809;51.892;8.384;2022-09-17T09:20:31;100127.25;;;13.25;99.50
17383;BME280;8809;51.892;8.384;2022-09-17T09:23:10;100122.19;;;13.33;97.70
17383;BME280;8809;51.892;8.384;2022-09-17T09:25:54;100123.31;;;13.46;99.28
17383;BME280;8809;51.892;8.384;2022-09-17T09:28:38;100130.53;;;13.54;98.33
17383;BME280;8809;51.892;8.384;2022-09-17T09:31:19;100134.22;;;13.64;95.99
17383;BME280;8809;51.892;8.384;2022-09-17T09:33:52;100127.34;;;13.69;98.95
17383;BME280;8809;51.892;8.384;2022-09-17T09:36:19;100131.69;;;13.68;100.00
17383;BME280;8809;51.892;8.384;2022-09-17T09:38:51;100123.06;;;13.72;98.88
17383;BME280;8809;51.892;8.384;2022-09-17T09:41:26;100129.22;;;13.76;96.21
17383;BME280;8809;51.892;8.384;2022-09-17T09:44:00;100149.38;;;13.79;98.02
17383;BME280;8809;51.892;8.384;2022-09-17T09:46:48;100137.19;;;13.81;96.69
17383;BME280;8809;51.892;8.384;2022-09-17T09:49:26;100141.44;;;13.75;93.98
17383;BME280;8809;51.892;8.384;2022-09-17T09:52:08;100146.00;;;13.83;95.35
17383;BME280;8809;51.892;8.384;2022-09-17T09:54:52;100143.53;;;13.90;94.50
17383;BME280;8809;51.892;8.384;2022-09-17T09:57:32;100138.44;;;13.98;92.98
17383;BME280;8809;51.892;8.384;2022-09-17T10:00:22;100142.16;;;14.09;95.20
17383;BME280;8809;51.892;8.384;2022-09-17T10:02:53;100142.31;;;14.17;93.00
17383;BME280;8809;51.892;8.384;2022-09-17T10:05:24;100134.53;;;14.21;91.65
17383;BME280;8809;51.892;8.384;2022-09-17T10:07:51;100136.34;;;14.25;89.92
17383;BME280;8809;51.892;8.384;2022-09-17T10:10:18;100127.69;;;14.29;92.36
17383;BME280;8809;51.892;8.384;2022-09-17T10:12:45;100125.00;;;14.26;93.22
17383;BME280;8809;51.892;8.384;2022-09-17T10:15:24;100123.28;;;14.28;91.44
17383;BME280;8809;51.892;8.384;2022-09-17T10:18:15;100114.72;;;14.37;91.13
17383;BME280;8809;51.892;8.384;2022-09-17T10:20:54;100131.34;;;14.37;88.19
17383;BME280;8809;51.892;8.384;2022-09-17T10:23:23;100109.44;;;14.35;88.60
17383;BME280;8809;51.892;8.384;2022-09-17T10:25:51;100120.84;;;14.37;87.41
17383;BME280;8809;51.892;8.384;2022-09-17T10:28:27;100117.50;;;14.44;88.22
17383;BME280;8809;51.892;8.384;2022-09-17T10:30:56;100110.72;;;14.56;85.87
17383;BME280;8809;51.892;8.384;2022-09-17T10:33:26;100104.06;;;14.76;83.98
17383;BME280;8809;51.892;8.384;2022-09-17T10:36:00;100092.06;;;14.93;83.02
17383;BME280;8809;51.892;8.384;2022-09-17T10:38:35;100102.94;;;15.16;83.91
17383;BME280;8809;51.892;8.384;2022-09-17T10:41:19;100111.88;;;15.29;83.72
17383;BME280;8809;51.892;8.384;2022-09-17T10:43:47;100112.06;;;15.41;82.04
17383;BME280;8809;51.892;8.384;2022-09-17T10:46:18;100114.66;;;15.39;81.52
17383;BME280;8809;51.892;8.384;2022-09-17T10:48:55;100099.06;;;15.51;80.37
17383;BME280;8809;51.892;8.384;2022-09-17T10:51:25;100103.41;;;15.48;78.96
17383;BME280;8809;51.892;8.384;2022-09-17T10:54:21;100094.91;;;15.64;81.42
17383;BME280;8809;51.892;8.384;2022-09-17T10:56:54;100091.34;;;15.61;80.27
17383;BME280;8809;51.892;8.384;2022-09-17T10:59:44;100098.94;;;15.42;79.35
17383;BME280;8809;51.892;8.384;2022-09-17T11:05:27;100106.25;;;15.03;93.18
17383;BME280;8809;51.892;8.384;2022-09-17T11:08:04;100105.09;;;14.85;93.10
17383;BME280;8809;51.892;8.384;2022-09-17T11:10:40;100109.06;;;14.62;94.23
17383;BME280;8809;51.892;8.384;2022-09-17T11:13:21;100113.25;;;14.51;96.18
17383;BME280;8809;51.892;8.384;2022-09-17T11:16:11;100104.50;;;14.52;98.77
17383;BME280;8809;51.892;8.384;2022-09-17T11:18:42;100104.56;;;14.55;94.40
17383;BME280;8809;51.892;8.384;2022-09-17T11:21:32;100097.03;;;14.75;92.80
17383;BME280;8809;51.892;8.384;2022-09-17T11:27:17;100096.09;;;15.29;84.03
17383;BME280;8809;51.892;8.384;2022-09-17T11:29:58;100088.47;;;15.45;83.28
17383;BME280;8809;51.892;8.384;2022-09-17T11:32:42;100085.19;;;15.60;78.14
17383;BME280;8809;51.892;8.384;2022-09-17T11:35:15;100094.16;;;15.77;77.09
17383;BME280;8809;51.892;8.384;2022-09-17T11:37:48;100079.50;;;15.94;78.31
17383;BME280;8809;51.892;8.384;2022-09-17T11:40:23;100075.31;;;16.12;77.27
17383;BME280;8809;51.892;8.384;2022-09-17T11:42:53;100085.03;;;16.19;76.20
17383;BME280;8809;51.892;8.384;2022-09-17T11:45:25;100092.28;;;16.41;76.27
17383;BME280;8809;51.892;8.384;2022-09-17T11:47:58;100083.44;;;16.33;74.50
17383;BME280;8809;51.892;8.384;2022-09-17T11:50:30;100085.94;;;16.21;71.61
17383;BME280;8809;51.892;8.384;2022-09-17T11:53:03;100086.81;;;16.24;71.74
17383;BME280;8809;51.892;8.384;2022-09-17T11:55:41;100084.09;;;16.14;72.26
17383;BME280;8809;51.892;8.384;2022-09-17T11:58:16;100075.22;;;16.06;71.81
17383;BME280;8809;51.892;8.384;2022-09-17T12:00:51;100072.47;;;15.96;72.87
17383;BME280;8809;51.892;8.384;2022-09-17T12:03:23;100060.41;;;16.12;73.45
17383;BME280;8809;51.892;8.384;2022-09-17T12:05:59;100052.72;;;16.35;70.75
17383;BME280;8809;51.892;8.384;2022-09-17T12:08:35;100077.38;;;16.45;71.66
17383;BME280;8809;51.892;8.384;2022-09-17T12:11:10;100073.94;;;16.53;71.03
17383;BME280;8809;51.892;8.384;2022-09-17T12:13:41;100070.50;;;16.60;70.74
17383;BME280;8809;51.892;8.384;2022-09-17T12:16:14;100073.25;;;16.69;69.88
17383;BME280;8809;51.892;8.384;2022-09-17T12:18:58;100063.66;;;16.78;68.38
17383;BME280;8809;51.892;8.384;2022-09-17T12:21:32;100077.69;;;16.75;66.88
17383;BME280;8809;51.892;8.384;2022-09-17T12:24:09;100074.22;;;16.79;69.21
17383;BME280;8809;51.892;8.384;2022-09-17T12:27:05;100073.44;;;16.91;70.96
17383;BME280;8809;51.892;8.384;2022-09-17T12:29:53;100076.09;;;16.95;71.25
17383;BME280;8809;51.892;8.384;2022-09-17T12:32:40;100079.53;;;16.85;71.65
17383;BME280;8809;51.892;8.384;2022-09-17T12:35:20;100053.03;;;16.62;76.54
17383;BME280;8809;51.892;8.384;2022-09-17T12:38:03;100066.91;;;16.49;76.47
17383;BME280;8809;51.892;8.384;2022-09-17T12:40:37;100061.44;;;16.29;77.23
17383;BME280;8809;51.892;8.384;2022-09-17T12:46:15;100059.50;;;16.12;78.13
17383;BME280;8809;51.892;8.384;2022-09-17T12:48:58;100058.56;;;16.07;78.22
17383;BME280;8809;51.892;8.384;2022-09-17T12:51:52;100069.19;;;16.13;78.20
17383;BME280;8809;51.892;8.384;2022-09-17T12:54:34;100062.16;;;16.12;76.16
17383;BME280;8809;51.892;8.384;2022-09-17T12:57:13;100062.09;;;16.09;76.78
17383;BME280;8809;51.892;8.384;2022-09-17T12:59:50;100066.44;;;16.02;76.66
17383;BME280;8809;51.892;8.384;2022-09-17T13:02:24;100077.84;;;16.03;74.96
17383;BME280;8809;51.892;8.384;2022-09-17T13:11:22;100069.31;;;16.28;76.58
17383;BME280;8809;51.892;8.384;2022-09-17T13:13:59;100062.47;;;16.45;76.84
17383;BME280;8809;51.892;8.384;2022-09-17T13:16:35;100056.53;;;16.61;76.77
17383;BME280;8809;51.892;8.384;2022-09-17T13:19:18;100068.00;;;16.73;75.02
17383;BME280;8809;51.892;8.384;2022-09-17T13:21:59;100068.91;;;16.76;73.83
17383;BME280;8809;51.892;8.384;2022-09-17T13:24:29;100064.31;;;16.55;74.82
17383;BME280;8809;51.892;8.384;2022-09-17T13:26:57;100051.09;;;16.48;74.54
17383;BME280;8809;51.892;8.384;2022-09-17T13:29:56;100050.25;;;16.52;73.75
17383;BME280;8809;51.892;8.384;2022-09-17T13:32:58;100044.00;;;16.41;75.26
17383;BME280;8809;51.892;8.384;2022-09-17T13:35:50;100046.72;;;16.50;75.40
17383;BME280;8809;51.892;8.384;2022-09-17T13:38:21;100062.63;;;16.60;75.41
17383;BME280;8809;51.892;8.384;2022-09-17T13:40:48;100057.38;;;16.63;73.57